sensor_id;sensor_type;location;lat;lon;timestamp;P1;durP1;ratioP1;P2;durP2;ratioP2
26080;SDS011;13991;51.174;4.438;2023-05-31T00:02:20;8.43;;;2.97;;
26080;SDS011;13991;51.174;4.438;2023-05-31T00:04:45;4.83;;;3.37;;
26080;SDS011;13991;51.174;4.438;2023-05-31T00:07:11;7.73;;;3.23;;
26080;SDS011;13991;51.174;4.438;2023-05-31T00:09:37;8.13;;;2.90;;
26080;SDS011;13991;51.174;4.438;2023-05-31T00:12:02;11.37;;;3.60;;
26080;SDS011;13991;51.174;4.438;2023-05-31T00:14:28;7.80;;;3.13;;
26080;SDS011;13991;51.174;4.438;2023-05-31T00:16:54;7.27;;;3.23;;
26080;SDS011;13991;51.174;4.438;2023-05-31T00:19:20;8.97;;;2.87;;
26080;SDS011;13991;51.174;4.438;2023-05-31T00:21:45;7.53;;;3.17;;
26080;SDS011;13991;51.174;4.438;2023-05-31T00:24:11;11.73;;;3.57;;
26080;SDS011;13991;51.174;4.438;2023-05-31T00:26:37;7.60;;;3.83;;
26080;SDS011;13991;51.174;4.438;2023-05-31T00:29:03;6.67;;;3.30;;
26080;SDS011;13991;51.174;4.438;2023-05-31T00:31:29;7.10;;;3.70;;
26080;SDS011;13991;51.174;4.438;2023-05-31T00:33:55;6.00;;;3.47;;
26080;SDS011;13991;51.174;4.438;2023-05-31T00:36:22;11.73;;;4.07;;
26080;SDS011;13991;51.174;4.438;2023-05-31T00:38:48;7.40;;;3.70;;
26080;SDS011;13991;51.174;4.438;2023-05-31T00:41:14;9.47;;;3.50;;
26080;SDS011;13991;51.174;4.438;2023-05-31T00:43:40;13.13;;;4.30;;
26080;SDS011;13991;51.174;4.438;2023-05-31T00:46:06;9.37;;;3.70;;
26080;SDS011;13991;51.174;4.438;2023-05-31T00:48:35;12.23;;;3.90;;
26080;SDS011;13991;51.174;4.438;2023-05-31T00:51:04;7.07;;;3.70;;
26080;SDS011;13991;51.174;4.438;2023-05-31T00:53:30;8.60;;;3.47;;
26080;SDS011;13991;51.174;4.438;2023-05-31T00:55:56;7.90;;;3.57;;
26080;SDS011;13991;51.174;4.438;2023-05-31T00:58:24;8.20;;;4.00;;
26080;SDS011;13991;51.174;4.438;2023-05-31T01:00:52;6.10;;;3.60;;
26080;SDS011;13991;51.174;4.438;2023-05-31T01:03:19;17.80;;;4.40;;
26080;SDS011;13991;51.174;4.438;2023-05-31T01:05:45;7.27;;;4.13;;
26080;SDS011;13991;51.174;4.438;2023-05-31T01:08:12;8.30;;;4.07;;
26080;SDS011;13991;51.174;4.438;2023-05-31T01:10:39;8.30;;;4.17;;
26080;SDS011;13991;51.174;4.438;2023-05-31T01:13:18;10.83;;;4.23;;
26080;SDS011;13991;51.174;4.438;2023-05-31T01:18:29;7.60;;;3.67;;
26080;SDS011;13991;51.174;4.438;2023-05-31T01:21:00;7.30;;;3.80;;
26080;SDS011;13991;51.174;4.438;2023-05-31T01:24:04;10.03;;;4.97;;
26080;SDS011;13991;51.174;4.438;2023-05-31T01:26:44;7.57;;;3.43;;
26080;SDS011;13991;51.174;4.438;2023-05-31T01:29:17;8.77;;;3.80;;
26080;SDS011;13991;51.174;4.438;2023-05-31T01:31:44;7.93;;;4.13;;
26080;SDS011;13991;51.174;4.438;2023-05-31T01:34:11;8.57;;;3.63;;
26080;SDS011;13991;51.174;4.438;2023-05-31T01:36:37;6.33;;;3.50;;
26080;SDS011;13991;51.174;4.438;2023-05-31T01:39:03;9.63;;;4.00;;
26080;SDS011;13991;51.174;4.438;2023-05-31T01:41:35;5.80;;;3.73;;
26080;SDS011;13991;51.174;4.438;2023-05-31T01:44:04;7.37;;;4.17;;
26080;SDS011;13991;51.174;4.438;2023-05-31T01:46:31;7.93;;;4.40;;
26080;SDS011;13991;51.174;4.438;2023-05-31T01:48:57;10.57;;;5.00;;
26080;SDS011;13991;51.174;4.438;2023-05-31T01:51:24;7.07;;;4.33;;
26080;SDS011;13991;51.174;4.438;2023-05-31T01:53:52;9.30;;;4.60;;
26080;SDS011;13991;51.174;4.438;2023-05-31T01:56:19;8.33;;;4.53;;
26080;SDS011;13991;51.174;4.438;2023-05-31T01:58:46;7.37;;;4.67;;
26080;SDS011;13991;51.174;4.438;2023-05-31T02:01:15;8.37;;;4.23;;
26080;SDS011;13991;51.174;4.438;2023-05-31T02:03:42;6.73;;;4.40;;
26080;SDS011;13991;51.174;4.438;2023-05-31T02:06:08;9.40;;;4.07;;
26080;SDS011;13991;51.174;4.438;2023-05-31T02:08:37;9.20;;;4.90;;
26080;SDS011;13991;51.174;4.438;2023-05-31T02:11:03;6.60;;;4.27;;
26080;SDS011;13991;51.174;4.438;2023-05-31T02:13:30;8.03;;;4.23;;
26080;SDS011;13991;51.174;4.438;2023-05-31T02:15:56;8.90;;;4.40;;
26080;SDS011;13991;51.174;4.438;2023-05-31T02:18:22;7.97;;;4.47;;
26080;SDS011;13991;51.174;4.438;2023-05-31T02:20:51;16.17;;;4.73;;
26080;SDS011;13991;51.174;4.438;2023-05-31T02:23:20;9.13;;;4.57;;
26080;SDS011;13991;51.174;4.438;2023-05-31T02:25:46;8.30;;;4.67;;
26080;SDS011;13991;51.174;4.438;2023-05-31T02:28:13;7.53;;;4.17;;
26080;SDS011;13991;51.174;4.438;2023-05-31T02:30:40;7.67;;;4.30;;
26080;SDS011;13991;51.174;4.438;2023-05-31T02:33:06;12.07;;;4.73;;
26080;SDS011;13991;51.174;4.438;2023-05-31T02:35:33;10.57;;;4.53;;
26080;SDS011;13991;51.174;4.438;2023-05-31T02:37:58;7.13;;;4.03;;
26080;SDS011;13991;51.174;4.438;2023-05-31T02:40:25;9.27;;;4.60;;
26080;SDS011;13991;51.174;4.438;2023-05-31T02:42:51;8.20;;;4.67;;
26080;SDS011;13991;51.174;4.438;2023-05-31T02:45:17;8.07;;;4.53;;
26080;SDS011;13991;51.174;4.438;2023-05-31T02:47:43;7.30;;;4.60;;
26080;SDS011;13991;51.174;4.438;2023-05-31T02:50:09;14.37;;;5.10;;
26080;SDS011;13991;51.174;4.438;2023-05-31T02:52:36;7.60;;;4.40;;
26080;SDS011;13991;51.174;4.438;2023-05-31T02:55:02;8.90;;;4.77;;
26080;SDS011;13991;51.174;4.438;2023-05-31T02:57:29;11.17;;;4.27;;
26080;SDS011;13991;51.174;4.438;2023-05-31T02:59:57;12.13;;;4.63;;
26080;SDS011;13991;51.174;4.438;2023-05-31T03:02:23;11.13;;;5.10;;
26080;SDS011;13991;51.174;4.438;2023-05-31T03:04:49;9.30;;;5.47;;
26080;SDS011;13991;51.174;4.438;2023-05-31T03:07:15;7.67;;;4.87;;
26080;SDS011;13991;51.174;4.438;2023-05-31T03:09:41;9.00;;;5.10;;
26080;SDS011;13991;51.174;4.438;2023-05-31T03:12:07;8.33;;;5.00;;
26080;SDS011;13991;51.174;4.438;2023-05-31T03:14:33;9.83;;;5.30;;
26080;SDS011;13991;51.174;4.438;2023-05-31T03:16:59;9.03;;;5.27;;
26080;SDS011;13991;51.174;4.438;2023-05-31T03:19:26;15.13;;;5.27;;
26080;SDS011;13991;51.174;4.438;2023-05-31T03:21:51;13.03;;;5.73;;
26080;SDS011;13991;51.174;4.438;2023-05-31T03:24:17;7.83;;;4.53;;
26080;SDS011;13991;51.174;4.438;2023-05-31T03:26:43;12.23;;;5.90;;
26080;SDS011;13991;51.174;4.438;2023-05-31T03:29:08;12.70;;;6.03;;
26080;SDS011;13991;51.174;4.438;2023-05-31T03:31:34;11.57;;;5.80;;
26080;SDS011;13991;51.174;4.438;2023-05-31T03:34:00;10.33;;;5.70;;
26080;SDS011;13991;51.174;4.438;2023-05-31T03:36:26;10.53;;;5.60;;
26080;SDS011;13991;51.174;4.438;2023-05-31T03:38:51;25.40;;;6.47;;
26080;SDS011;13991;51.174;4.438;2023-05-31T03:41:17;13.37;;;6.07;;
26080;SDS011;13991;51.174;4.438;2023-05-31T03:43:43;15.77;;;6.43;;
26080;SDS011;13991;51.174;4.438;2023-05-31T03:46:08;18.03;;;5.87;;
26080;SDS011;13991;51.174;4.438;2023-05-31T03:48:34;13.07;;;4.93;;
26080;SDS011;13991;51.174;4.438;2023-05-31T03:50:59;11.80;;;6.53;;
26080;SDS011;13991;51.174;4.438;2023-05-31T03:53:25;11.93;;;5.77;;
26080;SDS011;13991;51.174;4.438;2023-05-31T03:55:51;17.07;;;6.53;;
26080;SDS011;13991;51.174;4.438;2023-05-31T03:58:17;12.70;;;6.17;;
26080;SDS011;13991;51.174;4.438;2023-05-31T04:00:43;19.47;;;6.43;;
26080;SDS011;13991;51.174;4.438;2023-05-31T04:03:08;15.00;;;6.53;;
26080;SDS011;13991;51.174;4.438;2023-05-31T04:05:37;9.37;;;5.83;;
26080;SDS011;13991;51.174;4.438;2023-05-31T04:08:03;14.17;;;6.07;;
26080;SDS011;13991;51.174;4.438;2023-05-31T04:10:30;12.60;;;6.13;;
26080;SDS011;13991;51.174;4.438;2023-05-31T04:12:56;13.57;;;6.47;;
26080;SDS011;13991;51.174;4.438;2023-05-31T04:15:21;15.73;;;6.60;;
26080;SDS011;13991;51.174;4.438;2023-05-31T04:17:47;12.67;;;6.57;;
26080;SDS011;13991;51.174;4.438;2023-05-31T04:20:13;18.67;;;7.27;;
26080;SDS011;13991;51.174;4.438;2023-05-31T04:22:39;13.17;;;6.60;;
26080;SDS011;13991;51.174;4.438;2023-05-31T04:25:04;11.10;;;5.90;;
26080;SDS011;13991;51.174;4.438;2023-05-31T04:27:30;15.20;;;7.07;;
26080;SDS011;13991;51.174;4.438;2023-05-31T04:29:57;12.87;;;6.83;;
26080;SDS011;13991;51.174;4.438;2023-05-31T04:32:23;19.87;;;7.47;;
26080;SDS011;13991;51.174;4.438;2023-05-31T04:34:49;12.33;;;6.90;;
26080;SDS011;13991;51.174;4.438;2023-05-31T04:37:23;16.63;;;7.10;;
26080;SDS011;13991;51.174;4.438;2023-05-31T04:39:51;17.23;;;7.73;;
26080;SDS011;13991;51.174;4.438;2023-05-31T04:42:17;12.53;;;6.60;;
26080;SDS011;13991;51.174;4.438;2023-05-31T04:44:44;12.70;;;7.33;;
26080;SDS011;13991;51.174;4.438;2023-05-31T04:47:10;20.90;;;7.33;;
26080;SDS011;13991;51.174;4.438;2023-05-31T04:49:36;12.37;;;6.87;;
26080;SDS011;13991;51.174;4.438;2023-05-31T04:52:01;23.90;;;7.77;;
26080;SDS011;13991;51.174;4.438;2023-05-31T04:54:27;14.47;;;7.97;;
26080;SDS011;13991;51.174;4.438;2023-05-31T04:56:53;12.50;;;7.33;;
26080;SDS011;13991;51.174;4.438;2023-05-31T04:59:19;13.13;;;7.17;;
26080;SDS011;13991;51.174;4.438;2023-05-31T05:01:45;17.63;;;7.63;;
26080;SDS011;13991;51.174;4.438;2023-05-31T05:04:11;17.07;;;8.47;;
26080;SDS011;13991;51.174;4.438;2023-05-31T05:06:36;18.70;;;7.80;;
26080;SDS011;13991;51.174;4.438;2023-05-31T05:09:02;18.63;;;8.63;;
26080;SDS011;13991;51.174;4.438;2023-05-31T05:11:28;25.20;;;8.70;;
26080;SDS011;13991;51.174;4.438;2023-05-31T05:13:54;15.20;;;8.47;;
26080;SDS011;13991;51.174;4.438;2023-05-31T05:16:19;18.13;;;8.57;;
26080;SDS011;13991;51.174;4.438;2023-05-31T05:18:45;24.53;;;8.37;;
26080;SDS011;13991;51.174;4.438;2023-05-31T05:21:10;17.10;;;8.10;;
26080;SDS011;13991;51.174;4.438;2023-05-31T05:23:36;22.70;;;8.23;;
26080;SDS011;13991;51.174;4.438;2023-05-31T05:26:04;20.20;;;8.43;;
26080;SDS011;13991;51.174;4.438;2023-05-31T05:28:30;27.53;;;8.60;;
26080;SDS011;13991;51.174;4.438;2023-05-31T05:30:56;23.47;;;8.90;;
26080;SDS011;13991;51.174;4.438;2023-05-31T05:33:21;19.33;;;9.07;;
26080;SDS011;13991;51.174;4.438;2023-05-31T05:35:47;19.87;;;9.13;;
26080;SDS011;13991;51.174;4.438;2023-05-31T05:38:13;20.63;;;8.20;;
26080;SDS011;13991;51.174;4.438;2023-05-31T05:40:38;14.73;;;8.43;;
26080;SDS011;13991;51.174;4.438;2023-05-31T05:43:04;22.07;;;9.17;;
26080;SDS011;13991;51.174;4.438;2023-05-31T05:45:30;21.67;;;9.53;;
26080;SDS011;13991;51.174;4.438;2023-05-31T05:47:56;16.70;;;9.67;;
26080;SDS011;13991;51.174;4.438;2023-05-31T05:50:23;19.97;;;9.63;;
26080;SDS011;13991;51.174;4.438;2023-05-31T05:52:48;27.27;;;9.90;;
26080;SDS011;13991;51.174;4.438;2023-05-31T05:55:15;19.00;;;9.83;;
26080;SDS011;13991;51.174;4.438;2023-05-31T05:57:41;21.37;;;9.50;;
26080;SDS011;13991;51.174;4.438;2023-05-31T06:00:07;17.70;;;9.70;;
26080;SDS011;13991;51.174;4.438;2023-05-31T06:02:37;24.50;;;10.20;;
26080;SDS011;13991;51.174;4.438;2023-05-31T06:05:03;16.37;;;9.50;;
26080;SDS011;13991;51.174;4.438;2023-05-31T06:07:29;24.67;;;8.83;;
26080;SDS011;13991;51.174;4.438;2023-05-31T06:09:55;24.20;;;9.23;;
26080;SDS011;13991;51.174;4.438;2023-05-31T06:12:21;17.10;;;9.67;;
26080;SDS011;13991;51.174;4.438;2023-05-31T06:14:47;22.17;;;10.00;;
26080;SDS011;13991;51.174;4.438;2023-05-31T06:17:13;21.83;;;9.73;;
26080;SDS011;13991;51.174;4.438;2023-05-31T06:19:39;21.53;;;9.27;;
26080;SDS011;13991;51.174;4.438;2023-05-31T06:22:06;18.73;;;8.90;;
26080;SDS011;13991;51.174;4.438;2023-05-31T06:24:32;15.97;;;9.20;;
26080;SDS011;13991;51.174;4.438;2023-05-31T06:26:57;26.03;;;10.60;;
26080;SDS011;13991;51.174;4.438;2023-05-31T06:29:23;20.37;;;9.57;;
26080;SDS011;13991;51.174;4.438;2023-05-31T06:31:49;18.40;;;9.27;;
26080;SDS011;13991;51.174;4.438;2023-05-31T06:34:15;26.93;;;10.43;;
26080;SDS011;13991;51.174;4.438;2023-05-31T06:36:41;23.63;;;10.57;;
26080;SDS011;13991;51.174;4.438;2023-05-31T06:39:07;15.77;;;8.97;;
26080;SDS011;13991;51.174;4.438;2023-05-31T06:41:33;24.67;;;9.53;;
26080;SDS011;13991;51.174;4.438;2023-05-31T06:44:00;24.77;;;9.27;;
26080;SDS011;13991;51.174;4.438;2023-05-31T06:46:27;17.10;;;9.83;;
26080;SDS011;13991;51.174;4.438;2023-05-31T06:48:53;19.73;;;10.17;;
26080;SDS011;13991;51.174;4.438;2023-05-31T06:51:18;17.00;;;9.43;;
26080;SDS011;13991;51.174;4.438;2023-05-31T06:53:47;24.93;;;10.20;;
26080;SDS011;13991;51.174;4.438;2023-05-31T06:56:15;20.80;;;9.93;;
26080;SDS011;13991;51.174;4.438;2023-05-31T06:58:45;24.80;;;10.07;;
26080;SDS011;13991;51.174;4.438;2023-05-31T07:01:11;21.80;;;10.23;;
26080;SDS011;13991;51.174;4.438;2023-05-31T07:03:37;18.40;;;10.13;;
26080;SDS011;13991;51.174;4.438;2023-05-31T07:06:02;28.60;;;10.73;;
26080;SDS011;13991;51.174;4.438;2023-05-31T07:08:28;20.40;;;10.97;;
26080;SDS011;13991;51.174;4.438;2023-05-31T07:10:53;20.67;;;9.90;;
26080;SDS011;13991;51.174;4.438;2023-05-31T07:13:19;18.70;;;9.27;;
26080;SDS011;13991;51.174;4.438;2023-05-31T07:15:48;17.67;;;10.27;;
26080;SDS011;13991;51.174;4.438;2023-05-31T07:18:13;22.70;;;11.07;;
26080;SDS011;13991;51.174;4.438;2023-05-31T07:20:39;21.87;;;10.53;;
26080;SDS011;13991;51.174;4.438;2023-05-31T07:23:05;22.83;;;10.00;;
26080;SDS011;13991;51.174;4.438;2023-05-31T07:25:31;29.13;;;10.87;;
26080;SDS011;13991;51.174;4.438;2023-05-31T07:27:57;19.00;;;8.97;;
26080;SDS011;13991;51.174;4.438;2023-05-31T07:30:22;24.07;;;9.63;;
26080;SDS011;13991;51.174;4.438;2023-05-31T07:32:48;23.43;;;10.30;;
26080;SDS011;13991;51.174;4.438;2023-05-31T07:35:14;26.67;;;10.03;;
26080;SDS011;13991;51.174;4.438;2023-05-31T07:37:39;24.37;;;10.33;;
26080;SDS011;13991;51.174;4.438;2023-05-31T07:40:05;29.07;;;10.53;;
26080;SDS011;13991;51.174;4.438;2023-05-31T07:42:32;26.00;;;10.00;;
26080;SDS011;13991;51.174;4.438;2023-05-31T07:44:58;22.63;;;10.07;;
26080;SDS011;13991;51.174;4.438;2023-05-31T07:47:24;26.57;;;10.80;;
26080;SDS011;13991;51.174;4.438;2023-05-31T07:49:50;31.10;;;11.30;;
26080;SDS011;13991;51.174;4.438;2023-05-31T07:52:16;23.20;;;11.20;;
26080;SDS011;13991;51.174;4.438;2023-05-31T07:54:47;27.30;;;11.07;;
26080;SDS011;13991;51.174;4.438;2023-05-31T07:57:13;25.10;;;10.80;;
26080;SDS011;13991;51.174;4.438;2023-05-31T07:59:39;19.83;;;10.70;;
26080;SDS011;13991;51.174;4.438;2023-05-31T08:02:05;31.50;;;10.87;;
26080;SDS011;13991;51.174;4.438;2023-05-31T08:04:31;30.87;;;10.67;;
26080;SDS011;13991;51.174;4.438;2023-05-31T08:06:58;25.43;;;10.70;;
26080;SDS011;13991;51.174;4.438;2023-05-31T08:09:23;22.33;;;9.90;;
26080;SDS011;13991;51.174;4.438;2023-05-31T08:11:51;19.70;;;9.60;;
26080;SDS011;13991;51.174;4.438;2023-05-31T08:14:20;24.23;;;10.43;;
26080;SDS011;13991;51.174;4.438;2023-05-31T08:16:46;28.20;;;9.63;;
26080;SDS011;13991;51.174;4.438;2023-05-31T08:19:14;27.53;;;10.93;;
26080;SDS011;13991;51.174;4.438;2023-05-31T08:21:40;24.13;;;10.13;;
26080;SDS011;13991;51.174;4.438;2023-05-31T08:24:05;21.60;;;9.33;;
26080;SDS011;13991;51.174;4.438;2023-05-31T08:26:32;31.73;;;10.63;;
26080;SDS011;13991;51.174;4.438;2023-05-31T08:28:58;22.83;;;10.27;;
26080;SDS011;13991;51.174;4.438;2023-05-31T08:31:24;24.13;;;9.70;;
26080;SDS011;13991;51.174;4.438;2023-05-31T08:33:57;21.07;;;10.07;;
26080;SDS011;13991;51.174;4.438;2023-05-31T08:36:24;21.03;;;10.27;;
26080;SDS011;13991;51.174;4.438;2023-05-31T08:38:50;24.03;;;9.60;;
26080;SDS011;13991;51.174;4.438;2023-05-31T08:41:16;24.10;;;9.70;;
26080;SDS011;13991;51.174;4.438;2023-05-31T08:43:43;29.60;;;9.50;;
26080;SDS011;13991;51.174;4.438;2023-05-31T08:46:11;22.97;;;10.27;;
26080;SDS011;13991;51.174;4.438;2023-05-31T08:48:43;28.07;;;9.93;;
26080;SDS011;13991;51.174;4.438;2023-05-31T08:51:16;19.93;;;9.70;;
26080;SDS011;13991;51.174;4.438;2023-05-31T08:53:43;27.27;;;9.27;;
26080;SDS011;13991;51.174;4.438;2023-05-31T08:56:11;19.20;;;8.97;;
26080;SDS011;13991;51.174;4.438;2023-05-31T08:58:38;17.60;;;8.40;;
26080;SDS011;13991;51.174;4.438;2023-05-31T09:01:07;25.67;;;9.13;;
26080;SDS011;13991;51.174;4.438;2023-05-31T09:03:33;19.30;;;8.80;;
26080;SDS011;13991;51.174;4.438;2023-05-31T09:05:59;29.57;;;10.73;;
26080;SDS011;13991;51.174;4.438;2023-05-31T09:08:25;22.63;;;9.87;;
26080;SDS011;13991;51.174;4.438;2023-05-31T09:10:51;20.93;;;9.13;;
26080;SDS011;13991;51.174;4.438;2023-05-31T09:13:17;25.37;;;9.60;;
26080;SDS011;13991;51.174;4.438;2023-05-31T09:15:43;23.07;;;9.67;;
26080;SDS011;13991;51.174;4.438;2023-05-31T09:18:19;21.23;;;8.10;;
26080;SDS011;13991;51.174;4.438;2023-05-31T09:20:48;23.80;;;9.17;;
26080;SDS011;13991;51.174;4.438;2023-05-31T09:23:18;22.03;;;9.20;;
26080;SDS011;13991;51.174;4.438;2023-05-31T09:25:45;27.67;;;9.10;;
26080;SDS011;13991;51.174;4.438;2023-05-31T09:28:11;25.83;;;8.73;;
26080;SDS011;13991;51.174;4.438;2023-05-31T09:30:37;23.90;;;8.30;;
26080;SDS011;13991;51.174;4.438;2023-05-31T09:33:03;24.80;;;8.80;;
26080;SDS011;13991;51.174;4.438;2023-05-31T09:35:30;19.67;;;6.87;;
26080;SDS011;13991;51.174;4.438;2023-05-31T09:37:55;27.80;;;8.30;;
26080;SDS011;13991;51.174;4.438;2023-05-31T09:40:23;20.37;;;7.27;;
26080;SDS011;13991;51.174;4.438;2023-05-31T09:42:50;21.73;;;7.23;;
26080;SDS011;13991;51.174;4.438;2023-05-31T09:45:17;29.13;;;10.07;;
26080;SDS011;13991;51.174;4.438;2023-05-31T09:47:44;24.17;;;8.43;;
26080;SDS011;13991;51.174;4.438;2023-05-31T09:50:11;20.90;;;8.13;;
26080;SDS011;13991;51.174;4.438;2023-05-31T09:52:44;15.73;;;6.70;;
26080;SDS011;13991;51.174;4.438;2023-05-31T09:55:12;21.37;;;6.80;;
26080;SDS011;13991;51.174;4.438;2023-05-31T09:57:40;36.97;;;8.30;;
26080;SDS011;13991;51.174;4.438;2023-05-31T10:00:09;16.13;;;8.37;;
26080;SDS011;13991;51.174;4.438;2023-05-31T10:02:52;21.40;;;7.87;;
26080;SDS011;13991;51.174;4.438;2023-05-31T10:05:19;32.97;;;7.73;;
26080;SDS011;13991;51.174;4.438;2023-05-31T10:07:48;21.97;;;7.43;;
26080;SDS011;13991;51.174;4.438;2023-05-31T10:10:15;22.73;;;7.47;;
26080;SDS011;13991;51.174;4.438;2023-05-31T10:15:24;15.90;;;6.23;;
26080;SDS011;13991;51.174;4.438;2023-05-31T10:17:54;14.77;;;6.47;;
26080;SDS011;13991;51.174;4.438;2023-05-31T10:20:24;26.27;;;8.37;;
26080;SDS011;13991;51.174;4.438;2023-05-31T10:22:54;16.10;;;7.60;;
26080;SDS011;13991;51.174;4.438;2023-05-31T10:25:30;29.17;;;8.53;;
26080;SDS011;13991;51.174;4.438;2023-05-31T10:28:01;48.33;;;8.33;;
26080;SDS011;13991;51.174;4.438;2023-05-31T10:30:33;21.40;;;6.93;;
26080;SDS011;13991;51.174;4.438;2023-05-31T10:33:06;24.03;;;8.17;;
26080;SDS011;13991;51.174;4.438;2023-05-31T10:35:33;24.80;;;7.37;;
26080;SDS011;13991;51.174;4.438;2023-05-31T10:37:59;16.83;;;7.13;;
26080;SDS011;13991;51.174;4.438;2023-05-31T10:43:25;22.03;;;6.87;;
26080;SDS011;13991;51.174;4.438;2023-05-31T10:46:13;23.33;;;6.57;;
26080;SDS011;13991;51.174;4.438;2023-05-31T10:48:52;24.77;;;5.80;;
26080;SDS011;13991;51.174;4.438;2023-05-31T10:51:41;18.00;;;5.57;;
26080;SDS011;13991;51.174;4.438;2023-05-31T10:54:44;20.33;;;5.53;;
26080;SDS011;13991;51.174;4.438;2023-05-31T10:57:12;19.77;;;5.00;;
26080;SDS011;13991;51.174;4.438;2023-05-31T10:59:41;18.33;;;5.23;;
26080;SDS011;13991;51.174;4.438;2023-05-31T11:02:13;13.43;;;5.07;;
26080;SDS011;13991;51.174;4.438;2023-05-31T11:04:43;14.83;;;5.80;;
26080;SDS011;13991;51.174;4.438;2023-05-31T11:07:17;24.70;;;5.03;;
26080;SDS011;13991;51.174;4.438;2023-05-31T11:09:56;18.50;;;5.30;;
26080;SDS011;13991;51.174;4.438;2023-05-31T11:12:34;17.73;;;5.22;;
26080;SDS011;13991;51.174;4.438;2023-05-31T11:15:02;16.15;;;3.92;;
26080;SDS011;13991;51.174;4.438;2023-05-31T11:17:40;15.88;;;5.20;;
26080;SDS011;13991;51.174;4.438;2023-05-31T11:20:19;11.73;;;3.67;;
26080;SDS011;13991;51.174;4.438;2023-05-31T11:22:48;15.93;;;4.10;;
26080;SDS011;13991;51.174;4.438;2023-05-31T11:26:06;15.45;;;3.47;;
26080;SDS011;13991;51.174;4.438;2023-05-31T11:31:17;12.43;;;3.33;;
26080;SDS011;13991;51.174;4.438;2023-05-31T11:34:33;12.23;;;3.33;;
26080;SDS011;13991;51.174;4.438;2023-05-31T11:37:03;17.08;;;3.75;;
26080;SDS011;13991;51.174;4.438;2023-05-31T11:39:30;17.08;;;3.83;;
26080;SDS011;13991;51.174;4.438;2023-05-31T11:41:56;13.35;;;2.78;;
26080;SDS011;13991;51.174;4.438;2023-05-31T11:44:30;18.15;;;3.35;;
26080;SDS011;13991;51.174;4.438;2023-05-31T11:47:00;12.13;;;3.20;;
26080;SDS011;13991;51.174;4.438;2023-05-31T11:49:29;14.45;;;2.95;;
26080;SDS011;13991;51.174;4.438;2023-05-31T11:52:00;16.00;;;2.88;;
26080;SDS011;13991;51.174;4.438;2023-05-31T11:54:30;9.35;;;2.92;;
26080;SDS011;13991;51.174;4.438;2023-05-31T11:57:00;21.52;;;3.92;;
26080;SDS011;13991;51.174;4.438;2023-05-31T11:59:34;10.43;;;3.08;;
26080;SDS011;13991;51.174;4.438;2023-05-31T12:02:10;15.48;;;3.53;;
26080;SDS011;13991;51.174;4.438;2023-05-31T12:04:40;14.20;;;3.25;;
26080;SDS011;13991;51.174;4.438;2023-05-31T12:07:11;9.10;;;2.92;;
26080;SDS011;13991;51.174;4.438;2023-05-31T12:09:48;16.80;;;3.25;;
26080;SDS011;13991;51.174;4.438;2023-05-31T12:12:14;10.07;;;3.35;;
26080;SDS011;13991;51.174;4.438;2023-05-31T12:14:49;22.02;;;3.40;;
26080;SDS011;13991;51.174;4.438;2023-05-31T12:17:17;10.60;;;3.22;;
26080;SDS011;13991;51.174;4.438;2023-05-31T12:19:42;17.73;;;2.63;;
26080;SDS011;13991;51.174;4.438;2023-05-31T12:22:17;13.90;;;2.88;;
26080;SDS011;13991;51.174;4.438;2023-05-31T12:24:53;13.57;;;2.80;;
26080;SDS011;13991;51.174;4.438;2023-05-31T12:27:22;20.17;;;3.08;;
26080;SDS011;13991;51.174;4.438;2023-05-31T12:30:01;14.75;;;3.47;;
26080;SDS011;13991;51.174;4.438;2023-05-31T12:32:27;11.35;;;2.83;;
26080;SDS011;13991;51.174;4.438;2023-05-31T12:35:09;13.10;;;2.65;;
26080;SDS011;13991;51.174;4.438;2023-05-31T12:37:36;12.98;;;3.30;;
26080;SDS011;13991;51.174;4.438;2023-05-31T12:40:18;24.58;;;3.42;;
26080;SDS011;13991;51.174;4.438;2023-05-31T12:42:45;12.75;;;2.88;;
26080;SDS011;13991;51.174;4.438;2023-05-31T12:45:11;15.07;;;3.00;;
26080;SDS011;13991;51.174;4.438;2023-05-31T12:47:37;13.45;;;3.20;;
26080;SDS011;13991;51.174;4.438;2023-05-31T12:50:03;12.48;;;2.67;;
26080;SDS011;13991;51.174;4.438;2023-05-31T12:52:34;15.60;;;3.80;;
26080;SDS011;13991;51.174;4.438;2023-05-31T12:55:03;13.10;;;3.30;;
26080;SDS011;13991;51.174;4.438;2023-05-31T12:57:30;14.52;;;3.05;;
26080;SDS011;13991;51.174;4.438;2023-05-31T12:59:57;15.65;;;2.83;;
26080;SDS011;13991;51.174;4.438;2023-05-31T13:02:34;12.82;;;2.45;;
26080;SDS011;13991;51.174;4.438;2023-05-31T13:05:04;13.45;;;3.22;;
26080;SDS011;13991;51.174;4.438;2023-05-31T13:07:34;16.98;;;3.08;;
26080;SDS011;13991;51.174;4.438;2023-05-31T13:10:02;16.75;;;2.95;;
26080;SDS011;13991;51.174;4.438;2023-05-31T13:12:50;15.98;;;2.92;;
26080;SDS011;13991;51.174;4.438;2023-05-31T13:15:16;10.30;;;2.80;;
26080;SDS011;13991;51.174;4.438;2023-05-31T13:17:42;12.68;;;2.80;;
26080;SDS011;13991;51.174;4.438;2023-05-31T13:20:08;11.88;;;3.10;;
26080;SDS011;13991;51.174;4.438;2023-05-31T13:25:02;16.35;;;2.90;;
26080;SDS011;13991;51.174;4.438;2023-05-31T13:27:29;14.45;;;3.28;;
26080;SDS011;13991;51.174;4.438;2023-05-31T13:29:55;15.55;;;2.67;;
26080;SDS011;13991;51.174;4.438;2023-05-31T13:32:30;17.35;;;3.30;;
26080;SDS011;13991;51.174;4.438;2023-05-31T13:34:57;14.65;;;3.25;;
26080;SDS011;13991;51.174;4.438;2023-05-31T13:37:24;13.93;;;3.55;;
26080;SDS011;13991;51.174;4.438;2023-05-31T13:39:50;11.95;;;2.67;;
26080;SDS011;13991;51.174;4.438;2023-05-31T13:42:16;11.20;;;2.70;;
26080;SDS011;13991;51.174;4.438;2023-05-31T13:44:42;13.85;;;3.55;;
26080;SDS011;13991;51.174;4.438;2023-05-31T13:47:08;15.15;;;2.72;;
26080;SDS011;13991;51.174;4.438;2023-05-31T13:49:35;22.05;;;3.40;;
26080;SDS011;13991;51.174;4.438;2023-05-31T13:52:01;18.65;;;3.20;;
26080;SDS011;13991;51.174;4.438;2023-05-31T14:07:17;15.23;;;2.40;;
26080;SDS011;13991;51.174;4.438;2023-05-31T14:09:44;14.00;;;2.00;;
26080;SDS011;13991;51.174;4.438;2023-05-31T14:12:11;10.13;;;2.55;;
26080;SDS011;13991;51.174;4.438;2023-05-31T14:17:19;16.45;;;2.90;;
26080;SDS011;13991;51.174;4.438;2023-05-31T14:19:45;17.65;;;1.85;;
26080;SDS011;13991;51.174;4.438;2023-05-31T14:34:54;25.20;;;2.90;;
26080;SDS011;13991;51.174;4.438;2023-05-31T14:37:23;15.15;;;2.40;;
26080;SDS011;13991;51.174;4.438;2023-05-31T14:42:24;17.77;;;2.10;;
26080;SDS011;13991;51.174;4.438;2023-05-31T14:44:50;8.48;;;2.20;;
26080;SDS011;13991;51.174;4.438;2023-05-31T14:47:16;8.98;;;1.70;;
26080;SDS011;13991;51.174;4.438;2023-05-31T14:49:41;7.15;;;1.80;;
26080;SDS011;13991;51.174;4.438;2023-05-31T14:52:07;10.43;;;2.10;;
26080;SDS011;13991;51.174;4.438;2023-05-31T14:54:33;11.88;;;2.30;;
26080;SDS011;13991;51.174;4.438;2023-05-31T14:56:59;15.40;;;2.15;;
26080;SDS011;13991;51.174;4.438;2023-05-31T14:59:26;8.75;;;2.15;;
26080;SDS011;13991;51.174;4.438;2023-05-31T15:01:55;16.67;;;2.08;;
26080;SDS011;13991;51.174;4.438;2023-05-31T15:09:35;9.52;;;2.63;;
26080;SDS011;13991;51.174;4.438;2023-05-31T15:12:07;16.98;;;2.75;;
26080;SDS011;13991;51.174;4.438;2023-05-31T15:14:34;17.38;;;3.35;;
26080;SDS011;13991;51.174;4.438;2023-05-31T15:19:36;12.63;;;2.05;;
26080;SDS011;13991;51.174;4.438;2023-05-31T15:22:03;16.23;;;2.15;;
26080;SDS011;13991;51.174;4.438;2023-05-31T15:24:29;9.20;;;1.75;;
26080;SDS011;13991;51.174;4.438;2023-05-31T15:26:55;12.55;;;2.03;;
26080;SDS011;13991;51.174;4.438;2023-05-31T15:29:21;18.08;;;2.35;;
26080;SDS011;13991;51.174;4.438;2023-05-31T15:31:49;8.68;;;1.80;;
26080;SDS011;13991;51.174;4.438;2023-05-31T15:34:16;11.45;;;2.38;;